Meteo Giornale » Osservazioni meteo Turchia » Sirnak-Cizre
ore: 08:50 - Osservazioni Meteo Sirnak-Cizre
Lat. 37° 22' N Lon. 42° 4' E Alt. 621 metri s.l.m.
31 °C
Sereno
Temp. 24 Ore
23 °C
36 °C
Nord-Ovest
9.3 Km/h
Dew point 10 °C
Umidità 27 %
Visibilità 10 Km
Il sole sorge alle ore 05:42
Il sole tramonta alle ore 18:39
| Data e Ora | Cielo e Fenomeni | T °C | DP °C | Um. % | Pres. hPa | Vis. km | Vento km/h | |
|---|---|---|---|---|---|---|---|---|
| Oggi h: 08:50 | Sereno | 31 | 10 | 27 | 1011 | 10 | NO 9.3 | |
| Oggi h: 07:50 | Sereno | 29 | 11 | 32 | 1011 | 10 | NO 11.1 | |
| Oggi h: 06:50 | Sereno | 25 | 9 | 36 | 1011 | 10 | O 14.8 | |
| Oggi h: 05:50 | Sereno | 23 | 9 | 40 | 1011 | 10 | O 14.8 | |
| Oggi h: 04:50 | Sereno | 24 | 9 | 38 | 1011 | 10 | O 13 | |
| Oggi h: 03:50 | Sereno | 24 | 9 | 38 | 1011 | 10 | O 11.1 | |
| Oggi h: 02:50 | Sereno | 26 | 9 | 34 | 1010 | 10 | O/NO 13 | |
| Oggi h: 01:50 | Sereno | 25 | 9 | 36 | 1011 | 10 | O 14.8 | |
| Oggi h: 00:50 | Sereno | 26 | 8 | 31 | 1011 | 10 | O/NO 11.1 | |
| Ieri h: 23:50 | Sereno | 27 | 9 | 32 | 1011 | 10 | O 14.8 | |
| Ieri h: 22:50 | Sereno | 26 | 8 | 31 | 1011 | 10 | O 11.1 | |
| Ieri h: 21:50 | Sereno | 28 | 8 | 28 | 1011 | 10 | N 5.5 | |
| Ieri h: 20:50 | Sereno | 29 | 9 | 28 | 1011 | 10 | NO 7.4 | |
| Ieri h: 19:50 | Sereno | 30 | 9 | 27 | 1010 | 10 | O/NO 9.3 | |
| Ieri h: 18:50 | Sereno | 31 | 9 | 25 | 1010 | 10 | NO 7.4 | |
| Ieri h: 17:50 | Nuvoloso | 34 | 9 | 21 | 1010 | 10 | N 5.5 | |
| Ieri h: 16:50 | Molto Nuvoloso | 35 | 9 | 20 | 1009 | 10 | N 7.4 | |
| Ieri h: 15:50 | Molto Nuvoloso | 35 | 9 | 20 | 1009 | 10 | O 11.1 | |
| Ieri h: 14:50 | Molto Nuvoloso | 34 | 8 | 20 | 1010 | 10 | O/NO 13 | |
| Ieri h: 13:50 | Nuvoloso | 36 | 10 | 20 | 1010 | 10 | N 7.4 | |
| Ieri h: 12:50 | Sereno | 34 | 9 | 21 | 1010 | 10 | NO 9.3 | |
| Ieri h: 11:50 | Sereno | 33 | 10 | 24 | 1011 | 10 | N 9.3 | |
| Ieri h: 10:50 | Sereno | 32 | 9 | 24 | 1011 | 10 | N 7.4 | |
| Ieri h: 09:50 | Sereno | 31 | 10 | 27 | 1012 | 10 | N 9.3 | |



